XIO230 EGLF-LGAV
Flight info
| Callsign | XIO230 |
|---|---|
| Flight time | 2h 36m |
| Altitude | 41000 |
| Route | GWC N16 BIG UL9 KONAN UL607 REMBA M624 DIK N852 SUTAL DCT GTQ DCT DEVDI DCT RIPUS DCT RESIA DCT LABIN DCT PETAK DCT PINDO UL607 XORKI |
| Aircraft | GLF6/M-SBDE1E2E3FGHIJ3J4J5J7M1P2RWXYZ/LB1D1 |
Departure
| Time | 2026-04-21 09:16 |
|---|---|
| Airport | Farnborough Airport (EGLF) |
Arrival
| Time | 2026-04-21 11:52 |
|---|---|
| Airport | Athens Eleftherios Venizelos International Airport (LGAV) |
| Time | Latitude | Longitude | Altitude | Speed | Heading |
|---|---|---|---|---|---|
| 2026-04-21 08:18 | 51.27832 | -0.77923 | 218 ft | 0 kts | 159° |
| 2026-04-21 09:00 | 51.27833 | -0.77924 | 218 ft | 1 kts | 159° |
| 2026-04-21 09:01 | 51.27851 | -0.77935 | 218 ft | 3 kts | 159° |
| 2026-04-21 09:01 | 51.27867 | -0.77945 | 218 ft | 3 kts | 168° |
| 2026-04-21 09:01 | 51.27886 | -0.77945 | 218 ft | 3 kts | 208° |
| 2026-04-21 09:01 | 51.27902 | -0.77927 | 218 ft | 2 kts | 216° |
| 2026-04-21 09:02 | 51.27904 | -0.77925 | 218 ft | 4 kts | 216° |
| 2026-04-21 09:05 | 51.27898 | -0.77932 | 218 ft | 5 kts | 216° |
| 2026-04-21 09:05 | 51.27835 | -0.78005 | 218 ft | 17 kts | 216° |
| 2026-04-21 09:06 | 51.27706 | -0.78152 | 218 ft | 28 kts | 215° |
| 2026-04-21 09:06 | 51.27592 | -0.78333 | 221 ft | 21 kts | 221° |
| 2026-04-21 09:06 | 51.27480 | -0.78488 | 222 ft | 21 kts | 220° |
| 2026-04-21 09:06 | 51.27366 | -0.78643 | 224 ft | 21 kts | 220° |
| 2026-04-21 09:07 | 51.27287 | -0.78815 | 228 ft | 19 kts | 243° |
| 2026-04-21 09:07 | 51.27227 | -0.78991 | 235 ft | 16 kts | 242° |
| 2026-04-21 09:07 | 51.27180 | -0.79135 | 237 ft | 11 kts | 238° |
| 2026-04-21 09:07 | 51.27167 | -0.79156 | 233 ft | 0 kts | 219° |
| 2026-04-21 09:15 | 51.27165 | -0.79158 | 236 ft | 3 kts | 219° |
| 2026-04-21 09:15 | 51.27111 | -0.79160 | 231 ft | 11 kts | 151° |
| 2026-04-21 09:15 | 51.27092 | -0.79096 | 229 ft | 6 kts | 62° |
| 2026-04-21 09:15 | 51.27211 | -0.78738 | 227 ft | 81 kts | 62° |
| 2026-04-21 09:16 | 51.27611 | -0.77532 | 465 ft | 148 kts | 62° |
| 2026-04-21 09:16 | 51.28117 | -0.75947 | 1629 ft | 173 kts | 62° |
| 2026-04-21 09:16 | 51.28700 | -0.74083 | 2812 ft | 210 kts | 64° |
| 2026-04-21 09:16 | 51.29445 | -0.71637 | 3560 ft | 258 kts | 65° |
| 2026-04-21 09:17 | 51.30122 | -0.69182 | 6201 ft | 247 kts | 69° |
| 2026-04-21 09:17 | 51.30379 | -0.66376 | 7697 ft | 270 kts | 88° |
| 2026-04-21 09:17 | 51.30481 | -0.63372 | 9527 ft | 272 kts | 83° |
| 2026-04-21 09:17 | 51.30683 | -0.60354 | 11406 ft | 271 kts | 83° |
| 2026-04-21 09:18 | 51.30808 | -0.57340 | 13138 ft | 275 kts | 85° |
| 2026-04-21 09:18 | 51.30909 | -0.54216 | 14421 ft | 292 kts | 84° |
| 2026-04-21 09:18 | 51.31047 | -0.50815 | 15226 ft | 321 kts | 84° |
| 2026-04-21 09:18 | 51.31205 | -0.47087 | 16089 ft | 350 kts | 83° |
| 2026-04-21 09:19 | 51.31366 | -0.43045 | 17019 ft | 379 kts | 84° |
| 2026-04-21 09:19 | 51.31531 | -0.38688 | 18048 ft | 405 kts | 84° |
| 2026-04-21 09:19 | 51.31703 | -0.34138 | 19528 ft | 416 kts | 83° |
| 2026-04-21 09:19 | 51.31884 | -0.29490 | 20745 ft | 433 kts | 83° |
| 2026-04-21 09:20 | 51.32072 | -0.24592 | 22033 ft | 448 kts | 83° |
| 2026-04-21 09:20 | 51.32258 | -0.19545 | 23291 ft | 463 kts | 83° |
| 2026-04-21 09:20 | 51.32453 | -0.14306 | 24440 ft | 478 kts | 82° |
| 2026-04-21 09:20 | 51.32648 | -0.08939 | 25604 ft | 489 kts | 82° |
| 2026-04-21 09:21 | 51.32847 | -0.03440 | 26736 ft | 501 kts | 82° |
| 2026-04-21 09:21 | 51.32964 | 0.02199 | 27900 ft | 516 kts | 88° |
| 2026-04-21 09:21 | 51.32555 | 0.07985 | 29167 ft | 532 kts | 97° |
| 2026-04-21 09:21 | 51.31838 | 0.13860 | 30371 ft | 541 kts | 98° |
| 2026-04-21 09:22 | 51.31105 | 0.19747 | 31815 ft | 539 kts | 98° |
| 2026-04-21 09:22 | 51.30387 | 0.25600 | 33419 ft | 532 kts | 98° |
| 2026-04-21 09:22 | 51.29681 | 0.31376 | 34939 ft | 527 kts | 98° |
| 2026-04-21 09:22 | 51.28973 | 0.37093 | 36267 ft | 519 kts | 98° |
| 2026-04-21 09:23 | 51.28284 | 0.42625 | 37690 ft | 509 kts | 99° |
| 2026-04-21 09:23 | 51.27821 | 0.46351 | 38665 ft | 503 kts | 99° |
| 2026-04-21 09:23 | 51.26926 | 0.53527 | 40178 ft | 493 kts | 99° |
| 2026-04-21 09:23 | 51.26255 | 0.58884 | 40991 ft | 491 kts | 100° |
| 2026-04-21 09:24 | 51.25577 | 0.64244 | 41542 ft | 496 kts | 100° |
| 2026-04-21 09:24 | 51.24876 | 0.69732 | 41512 ft | 513 kts | 100° |
| 2026-04-21 09:24 | 51.24388 | 0.73541 | 41488 ft | 524 kts | 100° |
| 2026-04-21 09:24 | 51.23650 | 0.79323 | 41460 ft | 540 kts | 100° |
| 2026-04-21 09:25 | 51.22129 | 0.91174 | 41375 ft | 541 kts | 100° |
| 2026-04-21 09:25 | 51.20608 | 1.02904 | 41306 ft | 545 kts | 100° |
| 2026-04-21 09:26 | 51.19062 | 1.14742 | 41312 ft | 546 kts | 101° |
| 2026-04-21 09:26 | 51.17502 | 1.26579 | 41314 ft | 545 kts | 101° |
| 2026-04-21 09:27 | 51.16136 | 1.38454 | 41295 ft | 543 kts | 93° |
| 2026-04-21 09:27 | 51.15580 | 1.50472 | 41315 ft | 544 kts | 93° |
| 2026-04-21 09:28 | 51.14977 | 1.62517 | 41312 ft | 545 kts | 92° |
| 2026-04-21 09:28 | 51.14394 | 1.74472 | 41310 ft | 545 kts | 93° |
| 2026-04-21 09:29 | 51.13774 | 1.86520 | 41302 ft | 545 kts | 93° |
| 2026-04-21 09:29 | 51.13160 | 1.98470 | 41299 ft | 543 kts | 93° |
| 2026-04-21 09:30 | 51.12525 | 2.10434 | 41295 ft | 542 kts | 93° |
| 2026-04-21 09:30 | 51.11880 | 2.22410 | 41294 ft | 543 kts | 93° |
| 2026-04-21 09:31 | 51.11220 | 2.34411 | 41291 ft | 543 kts | 94° |
| 2026-04-21 09:31 | 51.10551 | 2.46378 | 41287 ft | 543 kts | 94° |
| 2026-04-21 09:32 | 51.09872 | 2.58282 | 41287 ft | 543 kts | 94° |
| 2026-04-21 09:32 | 51.08588 | 2.70115 | 41271 ft | 545 kts | 105° |
| 2026-04-21 09:33 | 51.06484 | 2.81707 | 41297 ft | 546 kts | 105° |
| 2026-04-21 09:33 | 51.04372 | 2.93309 | 41295 ft | 546 kts | 105° |
| 2026-04-21 09:34 | 51.02248 | 3.04899 | 41291 ft | 546 kts | 105° |
| 2026-04-21 09:34 | 51.00114 | 3.16471 | 41284 ft | 546 kts | 105° |
| 2026-04-21 09:35 | 50.97968 | 3.28032 | 41278 ft | 546 kts | 105° |
| 2026-04-21 09:35 | 50.95808 | 3.39599 | 41269 ft | 546 kts | 105° |
| 2026-04-21 09:36 | 50.93637 | 3.51150 | 41269 ft | 546 kts | 105° |
| 2026-04-21 09:36 | 50.91471 | 3.62613 | 41270 ft | 546 kts | 105° |
| 2026-04-21 09:37 | 50.89262 | 3.74126 | 41274 ft | 547 kts | 105° |
| 2026-04-21 09:37 | 50.87045 | 3.85576 | 41275 ft | 547 kts | 105° |
| 2026-04-21 09:38 | 50.84806 | 3.97090 | 41275 ft | 546 kts | 105° |
| 2026-04-21 09:38 | 50.82569 | 4.08521 | 41282 ft | 546 kts | 106° |
| 2026-04-21 09:39 | 50.80311 | 4.19987 | 41285 ft | 546 kts | 106° |
| 2026-04-21 09:39 | 50.78037 | 4.31476 | 41282 ft | 548 kts | 106° |
| 2026-04-21 09:40 | 50.75762 | 4.42885 | 41286 ft | 549 kts | 106° |
| 2026-04-21 09:40 | 50.73463 | 4.54372 | 41281 ft | 548 kts | 106° |
| 2026-04-21 09:41 | 50.71166 | 4.65854 | 41279 ft | 548 kts | 105° |
| 2026-04-21 09:41 | 50.68985 | 4.77364 | 41256 ft | 548 kts | 105° |
| 2026-04-21 09:42 | 50.66261 | 4.88592 | 41241 ft | 550 kts | 117° |
| 2026-04-21 09:42 | 50.61766 | 4.98324 | 41238 ft | 552 kts | 134° |
| 2026-04-21 09:43 | 50.56291 | 5.06800 | 41248 ft | 552 kts | 135° |
| 2026-04-21 09:43 | 50.50812 | 5.15269 | 41257 ft | 552 kts | 135° |
| 2026-04-21 09:44 | 50.45363 | 5.23641 | 41220 ft | 549 kts | 135° |
| 2026-04-21 09:44 | 50.39893 | 5.32033 | 41221 ft | 550 kts | 135° |
| 2026-04-21 09:45 | 50.34442 | 5.40357 | 41209 ft | 549 kts | 135° |
| 2026-04-21 09:45 | 50.28961 | 5.48706 | 41190 ft | 550 kts | 135° |
| 2026-04-21 09:46 | 50.23466 | 5.57043 | 41218 ft | 551 kts | 135° |
| 2026-04-21 09:46 | 50.17953 | 5.65381 | 41213 ft | 552 kts | 135° |
| 2026-04-21 09:47 | 50.12426 | 5.73710 | 41211 ft | 551 kts | 136° |
| 2026-04-21 09:47 | 50.06902 | 5.82010 | 41201 ft | 551 kts | 136° |
| 2026-04-21 09:48 | 50.01411 | 5.90237 | 41194 ft | 552 kts | 136° |
| 2026-04-21 09:48 | 49.95866 | 5.98517 | 41198 ft | 552 kts | 136° |
| 2026-04-21 09:49 | 49.90310 | 6.06777 | 41199 ft | 553 kts | 136° |
| 2026-04-21 09:49 | 49.84239 | 6.14020 | 41180 ft | 552 kts | 151° |
| 2026-04-21 09:50 | 49.79600 | 6.17419 | 41175 ft | 551 kts | 157° |
| 2026-04-21 09:50 | 49.70257 | 6.23756 | 41190 ft | 552 kts | 157° |
| 2026-04-21 09:51 | 49.63199 | 6.28516 | 41191 ft | 552 kts | 157° |
| 2026-04-21 09:51 | 49.56105 | 6.33090 | 41179 ft | 552 kts | 159° |
| 2026-04-21 09:52 | 49.49016 | 6.37652 | 41175 ft | 552 kts | 158° |
| 2026-04-21 09:52 | 49.41987 | 6.42376 | 41168 ft | 552 kts | 157° |
| 2026-04-21 09:53 | 49.35002 | 6.47105 | 41162 ft | 552 kts | 157° |
| 2026-04-21 09:53 | 49.27981 | 6.51883 | 41165 ft | 552 kts | 157° |
| 2026-04-21 09:54 | 49.20932 | 6.56642 | 41163 ft | 553 kts | 157° |
| 2026-04-21 09:54 | 49.13885 | 6.61397 | 41163 ft | 553 kts | 157° |
| 2026-04-21 09:55 | 49.06840 | 6.66131 | 41152 ft | 553 kts | 157° |
| 2026-04-21 09:55 | 48.99780 | 6.70863 | 41151 ft | 555 kts | 157° |
| 2026-04-21 09:56 | 48.92725 | 6.75651 | 41150 ft | 554 kts | 156° |
| 2026-04-21 09:56 | 48.85691 | 6.80481 | 41146 ft | 553 kts | 157° |
| 2026-04-21 09:57 | 48.78650 | 6.85245 | 41145 ft | 554 kts | 157° |
| 2026-04-21 09:57 | 48.71662 | 6.89995 | 41146 ft | 555 kts | 157° |
| 2026-04-21 09:58 | 48.64605 | 6.94756 | 41140 ft | 554 kts | 157° |
| 2026-04-21 09:58 | 48.57552 | 6.99510 | 41134 ft | 554 kts | 157° |
| 2026-04-21 09:59 | 48.50500 | 7.04244 | 41130 ft | 554 kts | 157° |
| 2026-04-21 09:59 | 48.43444 | 7.08968 | 41133 ft | 554 kts | 157° |
| 2026-04-21 10:00 | 48.36438 | 7.13644 | 41122 ft | 554 kts | 158° |
| 2026-04-21 10:00 | 48.29384 | 7.18339 | 41124 ft | 555 kts | 158° |
| 2026-04-21 10:01 | 48.22316 | 7.23027 | 41128 ft | 555 kts | 158° |
| 2026-04-21 10:01 | 48.15253 | 7.27699 | 41135 ft | 556 kts | 158° |
| 2026-04-21 10:02 | 48.04629 | 7.34700 | 41136 ft | 555 kts | 158° |
| 2026-04-21 10:03 | 47.97601 | 7.39313 | 41117 ft | 555 kts | 158° |
| 2026-04-21 10:03 | 47.90527 | 7.43943 | 41117 ft | 556 kts | 158° |
| 2026-04-21 10:04 | 47.83437 | 7.48569 | 41109 ft | 556 kts | 158° |
| 2026-04-21 10:04 | 47.76535 | 7.53762 | 40141 ft | 557 kts | 147° |
| 2026-04-21 10:04 | 47.73460 | 7.57266 | 41097 ft | 555 kts | 139° |
| 2026-04-21 10:05 | 47.70753 | 7.61337 | 41097 ft | 554 kts | 131° |
| 2026-04-21 10:05 | 47.66097 | 7.70517 | 41109 ft | 558 kts | 127° |
| 2026-04-21 10:06 | 47.61489 | 7.79757 | 41105 ft | 557 kts | 126° |
| 2026-04-21 10:06 | 47.56877 | 7.89008 | 41099 ft | 557 kts | 127° |
| 2026-04-21 10:07 | 47.52254 | 7.98228 | 41071 ft | 558 kts | 127° |
| 2026-04-21 10:07 | 47.47654 | 8.07384 | 41074 ft | 560 kts | 127° |
| 2026-04-21 10:08 | 47.42994 | 8.16619 | 41079 ft | 560 kts | 127° |
| 2026-04-21 10:08 | 47.38326 | 8.25847 | 40172 ft | 560 kts | 127° |
| 2026-04-21 10:08 | 47.35995 | 8.30439 | 41091 ft | 558 kts | 127° |
| 2026-04-21 10:09 | 47.33676 | 8.35005 | 41066 ft | 556 kts | 128° |
| 2026-04-21 10:09 | 47.29779 | 8.42653 | 41070 ft | 565 kts | 128° |
| 2026-04-21 10:10 | 47.24347 | 8.53440 | 41085 ft | 561 kts | 127° |
| 2026-04-21 10:10 | 47.20491 | 8.61223 | 41082 ft | 563 kts | 128° |
| 2026-04-21 10:11 | 47.15874 | 8.70528 | 41081 ft | 563 kts | 127° |
| 2026-04-21 10:11 | 47.11285 | 8.79769 | 41066 ft | 563 kts | 128° |
| 2026-04-21 10:12 | 47.06657 | 8.89039 | 41058 ft | 564 kts | 128° |
| 2026-04-21 10:12 | 47.02013 | 8.98321 | 41053 ft | 563 kts | 128° |
| 2026-04-21 10:13 | 46.97389 | 9.07523 | 41044 ft | 560 kts | 128° |
| 2026-04-21 10:13 | 46.92740 | 9.16757 | 41054 ft | 563 kts | 128° |
| 2026-04-21 10:14 | 46.88088 | 9.25952 | 41044 ft | 562 kts | 128° |
| 2026-04-21 10:14 | 46.83451 | 9.35100 | 41025 ft | 564 kts | 128° |
| 2026-04-21 10:15 | 46.78780 | 9.44277 | 41016 ft | 563 kts | 128° |
| 2026-04-21 10:15 | 46.74089 | 9.53464 | 40993 ft | 565 kts | 128° |
| 2026-04-21 10:16 | 46.69399 | 9.62620 | 40994 ft | 564 kts | 128° |
| 2026-04-21 10:16 | 46.64700 | 9.71764 | 40986 ft | 564 kts | 128° |
| 2026-04-21 10:17 | 46.59990 | 9.80896 | 41007 ft | 565 kts | 128° |
| 2026-04-21 10:17 | 46.55258 | 9.90044 | 40994 ft | 565 kts | 128° |
| 2026-04-21 10:18 | 46.50529 | 9.99152 | 40995 ft | 564 kts | 129° |
| 2026-04-21 10:18 | 46.45933 | 10.08388 | 40989 ft | 565 kts | 125° |
| 2026-04-21 10:19 | 46.41578 | 10.17827 | 40982 ft | 567 kts | 125° |
| 2026-04-21 10:19 | 46.37143 | 10.27275 | 40969 ft | 565 kts | 125° |
| 2026-04-21 10:20 | 46.32748 | 10.36700 | 40952 ft | 565 kts | 126° |
| 2026-04-21 10:20 | 46.28310 | 10.46116 | 40967 ft | 566 kts | 125° |
| 2026-04-21 10:21 | 46.23877 | 10.55541 | 40959 ft | 568 kts | 125° |
| 2026-04-21 10:21 | 46.19423 | 10.64943 | 40964 ft | 566 kts | 126° |
| 2026-04-21 10:22 | 46.14979 | 10.74318 | 40965 ft | 566 kts | 126° |
| 2026-04-21 10:22 | 46.10523 | 10.83667 | 40970 ft | 567 kts | 126° |
| 2026-04-21 10:23 | 46.06062 | 10.93012 | 40982 ft | 570 kts | 126° |
| 2026-04-21 10:23 | 46.01563 | 11.02392 | 40964 ft | 569 kts | 126° |
| 2026-04-21 10:24 | 45.97064 | 11.11755 | 40960 ft | 568 kts | 126° |
| 2026-04-21 10:24 | 45.92552 | 11.21096 | 40968 ft | 570 kts | 126° |
| 2026-04-21 10:25 | 45.88029 | 11.30446 | 40986 ft | 570 kts | 126° |
| 2026-04-21 10:25 | 45.83485 | 11.39793 | 40987 ft | 570 kts | 126° |
| 2026-04-21 10:26 | 45.78941 | 11.49126 | 40998 ft | 570 kts | 126° |
| 2026-04-21 10:26 | 45.74410 | 11.58385 | 40996 ft | 569 kts | 126° |
| 2026-04-21 10:27 | 45.69865 | 11.67656 | 40987 ft | 569 kts | 126° |
| 2026-04-21 10:27 | 45.65309 | 11.76910 | 40985 ft | 569 kts | 126° |
| 2026-04-21 10:28 | 45.60745 | 11.86153 | 41006 ft | 568 kts | 126° |
| 2026-04-21 10:28 | 45.56195 | 11.95338 | 41001 ft | 567 kts | 126° |
| 2026-04-21 10:29 | 45.51626 | 12.04529 | 40998 ft | 568 kts | 126° |
| 2026-04-21 10:29 | 45.47045 | 12.13717 | 41003 ft | 569 kts | 126° |
| 2026-04-21 10:30 | 45.42453 | 12.22898 | 41027 ft | 569 kts | 126° |
| 2026-04-21 10:30 | 45.37857 | 12.32058 | 41022 ft | 568 kts | 126° |
| 2026-04-21 10:31 | 45.33284 | 12.41140 | 41021 ft | 568 kts | 127° |
| 2026-04-21 10:31 | 45.28667 | 12.50280 | 41005 ft | 569 kts | 127° |
| 2026-04-21 10:32 | 45.24044 | 12.59405 | 41002 ft | 569 kts | 127° |
| 2026-04-21 10:32 | 45.19407 | 12.68526 | 41002 ft | 570 kts | 127° |
| 2026-04-21 10:33 | 45.14763 | 12.77635 | 41019 ft | 570 kts | 127° |
| 2026-04-21 10:33 | 45.10112 | 12.86727 | 41021 ft | 569 kts | 127° |
| 2026-04-21 10:34 | 45.05455 | 12.95802 | 41023 ft | 569 kts | 127° |
| 2026-04-21 10:34 | 45.00792 | 13.04858 | 41006 ft | 569 kts | 127° |
| 2026-04-21 10:35 | 44.96285 | 13.14066 | 41003 ft | 570 kts | 124° |
| 2026-04-21 10:35 | 44.91956 | 13.23451 | 41003 ft | 571 kts | 124° |
| 2026-04-21 10:36 | 44.87604 | 13.32742 | 41003 ft | 570 kts | 124° |
| 2026-04-21 10:36 | 44.83251 | 13.42085 | 41011 ft | 570 kts | 124° |
| 2026-04-21 10:37 | 44.78876 | 13.51396 | 41006 ft | 570 kts | 124° |
| 2026-04-21 10:37 | 44.74501 | 13.60704 | 40998 ft | 569 kts | 124° |
| 2026-04-21 10:38 | 44.70113 | 13.69996 | 40995 ft | 569 kts | 124° |
| 2026-04-21 10:38 | 44.65760 | 13.79190 | 41004 ft | 569 kts | 125° |
| 2026-04-21 10:39 | 44.61358 | 13.88454 | 41008 ft | 569 kts | 125° |
| 2026-04-21 10:39 | 44.56956 | 13.97691 | 41007 ft | 569 kts | 125° |
| 2026-04-21 10:40 | 44.52544 | 14.06917 | 41021 ft | 569 kts | 125° |
| 2026-04-21 10:40 | 44.48133 | 14.16115 | 41010 ft | 569 kts | 125° |
| 2026-04-21 10:41 | 44.43714 | 14.25298 | 41012 ft | 568 kts | 125° |
| 2026-04-21 10:41 | 44.39291 | 14.34461 | 41011 ft | 568 kts | 125° |
| 2026-04-21 10:42 | 44.34857 | 14.43615 | 41017 ft | 569 kts | 125° |
| 2026-04-21 10:42 | 44.30416 | 14.52758 | 41019 ft | 569 kts | 125° |
| 2026-04-21 10:43 | 44.25964 | 14.61894 | 41022 ft | 569 kts | 126° |
| 2026-04-21 10:43 | 44.21536 | 14.70954 | 41019 ft | 569 kts | 126° |
| 2026-04-21 10:44 | 44.17072 | 14.80055 | 41021 ft | 569 kts | 126° |
| 2026-04-21 10:44 | 44.12602 | 14.89142 | 41022 ft | 569 kts | 126° |
| 2026-04-21 10:45 | 44.08118 | 14.98234 | 40995 ft | 569 kts | 126° |
| 2026-04-21 10:45 | 44.03628 | 15.07297 | 40973 ft | 569 kts | 126° |
| 2026-04-21 10:46 | 43.99134 | 15.16353 | 40969 ft | 570 kts | 126° |
| 2026-04-21 10:46 | 43.94621 | 15.25411 | 40958 ft | 569 kts | 126° |
| 2026-04-21 10:47 | 43.90135 | 15.34388 | 40967 ft | 569 kts | 126° |
| 2026-04-21 10:47 | 43.85643 | 15.43353 | 40975 ft | 570 kts | 126° |
| 2026-04-21 10:48 | 43.81087 | 15.52415 | 40957 ft | 570 kts | 126° |
| 2026-04-21 10:48 | 43.76548 | 15.61418 | 40962 ft | 569 kts | 126° |
| 2026-04-21 10:49 | 43.72010 | 15.70386 | 40955 ft | 570 kts | 126° |
| 2026-04-21 10:49 | 43.67454 | 15.79369 | 40962 ft | 570 kts | 126° |
| 2026-04-21 10:50 | 43.63664 | 15.86817 | 40965 ft | 570 kts | 126° |
| 2026-04-21 10:50 | 43.58328 | 15.97273 | 40968 ft | 570 kts | 127° |
| 2026-04-21 10:51 | 43.53777 | 16.06158 | 40965 ft | 570 kts | 127° |
| 2026-04-21 10:51 | 43.49194 | 16.15085 | 40967 ft | 570 kts | 127° |
| 2026-04-21 10:52 | 43.44607 | 16.23987 | 40945 ft | 569 kts | 127° |
| 2026-04-21 10:52 | 43.40018 | 16.32870 | 40964 ft | 570 kts | 127° |
| 2026-04-21 10:53 | 43.35416 | 16.41751 | 40959 ft | 570 kts | 127° |
| 2026-04-21 10:53 | 43.30804 | 16.50621 | 40249 ft | 570 kts | 127° |
| 2026-04-21 10:53 | 43.28502 | 16.55040 | 40968 ft | 566 kts | 127° |
| 2026-04-21 10:54 | 43.26221 | 16.59413 | 40950 ft | 563 kts | 127° |
| 2026-04-21 10:54 | 43.22404 | 16.66713 | 40944 ft | 567 kts | 127° |
| 2026-04-21 10:55 | 43.17062 | 16.76903 | 40946 ft | 563 kts | 127° |
| 2026-04-21 10:55 | 43.12478 | 16.85616 | 40944 ft | 565 kts | 127° |
| 2026-04-21 10:56 | 43.08625 | 16.92921 | 40946 ft | 565 kts | 127° |
| 2026-04-21 10:56 | 43.04049 | 17.01574 | 40944 ft | 564 kts | 128° |
| 2026-04-21 10:57 | 42.99440 | 17.10263 | 40952 ft | 565 kts | 128° |
| 2026-04-21 10:57 | 42.94819 | 17.18950 | 40951 ft | 565 kts | 128° |
| 2026-04-21 10:58 | 42.90191 | 17.27624 | 40931 ft | 565 kts | 128° |
| 2026-04-21 10:58 | 42.85555 | 17.36287 | 40944 ft | 566 kts | 128° |
| 2026-04-21 10:59 | 42.80897 | 17.44968 | 40954 ft | 567 kts | 128° |
| 2026-04-21 10:59 | 42.76267 | 17.53572 | 40954 ft | 567 kts | 128° |
| 2026-04-21 11:00 | 42.71599 | 17.62217 | 40960 ft | 566 kts | 128° |
| 2026-04-21 11:00 | 42.66924 | 17.70856 | 40957 ft | 567 kts | 128° |
| 2026-04-21 11:01 | 42.62238 | 17.79485 | 40943 ft | 568 kts | 128° |
| 2026-04-21 11:01 | 42.57539 | 17.88117 | 40958 ft | 569 kts | 128° |
| 2026-04-21 11:02 | 42.50463 | 18.01066 | 40964 ft | 568 kts | 129° |
| 2026-04-21 11:02 | 42.45748 | 18.09665 | 40965 ft | 569 kts | 129° |
| 2026-04-21 11:03 | 42.41052 | 18.18204 | 40963 ft | 569 kts | 129° |
| 2026-04-21 11:03 | 42.36318 | 18.26787 | 40961 ft | 569 kts | 129° |
| 2026-04-21 11:04 | 42.31574 | 18.35362 | 40947 ft | 569 kts | 129° |
| 2026-04-21 11:04 | 42.26832 | 18.43912 | 40933 ft | 569 kts | 129° |
| 2026-04-21 11:05 | 42.22071 | 18.52470 | 40934 ft | 569 kts | 129° |
| 2026-04-21 11:05 | 42.17308 | 18.61009 | 40929 ft | 570 kts | 129° |
| 2026-04-21 11:06 | 42.12532 | 18.69545 | 40932 ft | 569 kts | 129° |
| 2026-04-21 11:06 | 42.07755 | 18.78059 | 40950 ft | 569 kts | 129° |
| 2026-04-21 11:07 | 42.03001 | 18.86509 | 40946 ft | 570 kts | 129° |
| 2026-04-21 11:07 | 41.98202 | 18.95017 | 40944 ft | 571 kts | 129° |
| 2026-04-21 11:08 | 41.93397 | 19.03508 | 40954 ft | 570 kts | 129° |
| 2026-04-21 11:08 | 41.88591 | 19.11979 | 40954 ft | 570 kts | 129° |
| 2026-04-21 11:09 | 41.83771 | 19.20451 | 40957 ft | 571 kts | 129° |
| 2026-04-21 11:09 | 41.78942 | 19.28915 | 40955 ft | 571 kts | 130° |
| 2026-04-21 11:10 | 41.73555 | 19.36554 | 40954 ft | 567 kts | 139° |
| 2026-04-21 11:10 | 41.67900 | 19.43945 | 40958 ft | 569 kts | 139° |
| 2026-04-21 11:11 | 41.62221 | 19.51296 | 40963 ft | 568 kts | 139° |
| 2026-04-21 11:11 | 41.56552 | 19.58650 | 40957 ft | 568 kts | 139° |
| 2026-04-21 11:12 | 41.50864 | 19.65988 | 40940 ft | 568 kts | 139° |
| 2026-04-21 11:12 | 41.45179 | 19.73316 | 40965 ft | 568 kts | 139° |
| 2026-04-21 11:13 | 41.39492 | 19.80623 | 40955 ft | 568 kts | 139° |
| 2026-04-21 11:13 | 41.33852 | 19.87852 | 40963 ft | 565 kts | 139° |
| 2026-04-21 11:14 | 41.28167 | 19.95116 | 40963 ft | 567 kts | 139° |
| 2026-04-21 11:14 | 41.22486 | 20.02366 | 40965 ft | 565 kts | 139° |
| 2026-04-21 11:15 | 41.16805 | 20.09587 | 40962 ft | 566 kts | 139° |
| 2026-04-21 11:15 | 41.11110 | 20.16816 | 40961 ft | 566 kts | 139° |
| 2026-04-21 11:16 | 41.05412 | 20.24024 | 40960 ft | 565 kts | 139° |
| 2026-04-21 11:16 | 40.99721 | 20.31212 | 40969 ft | 565 kts | 139° |
| 2026-04-21 11:17 | 40.94064 | 20.38331 | 40980 ft | 566 kts | 139° |
| 2026-04-21 11:17 | 40.88351 | 20.45488 | 40975 ft | 565 kts | 139° |
| 2026-04-21 11:18 | 40.82664 | 20.52659 | 40973 ft | 565 kts | 139° |
| 2026-04-21 11:18 | 40.76934 | 20.59775 | 40961 ft | 565 kts | 139° |
| 2026-04-21 11:19 | 40.71141 | 20.66737 | 40953 ft | 562 kts | 142° |
| 2026-04-21 11:19 | 40.65233 | 20.73533 | 40964 ft | 565 kts | 140° |
| 2026-04-21 11:20 | 40.59393 | 20.80502 | 40963 ft | 565 kts | 142° |
| 2026-04-21 11:20 | 40.53474 | 20.87325 | 40956 ft | 565 kts | 141° |
| 2026-04-21 11:21 | 40.47653 | 20.94189 | 40950 ft | 564 kts | 141° |
| 2026-04-21 11:21 | 40.41752 | 21.01004 | 40933 ft | 565 kts | 141° |
| 2026-04-21 11:22 | 40.35889 | 21.07845 | 40932 ft | 564 kts | 141° |
| 2026-04-21 11:22 | 40.29998 | 21.14643 | 40926 ft | 564 kts | 141° |
| 2026-04-21 11:23 | 40.24106 | 21.21466 | 40925 ft | 565 kts | 141° |
| 2026-04-21 11:23 | 40.18199 | 21.28265 | 40917 ft | 565 kts | 141° |
| 2026-04-21 11:24 | 40.12298 | 21.35054 | 40919 ft | 565 kts | 141° |
| 2026-04-21 11:24 | 40.06395 | 21.41821 | 40915 ft | 565 kts | 141° |
| 2026-04-21 11:25 | 40.00480 | 21.48592 | 40916 ft | 566 kts | 141° |
| 2026-04-21 11:25 | 39.94600 | 21.55302 | 40912 ft | 565 kts | 141° |
| 2026-04-21 11:26 | 39.88678 | 21.62045 | 40918 ft | 565 kts | 141° |
| 2026-04-21 11:26 | 39.82766 | 21.68762 | 40921 ft | 563 kts | 142° |
| 2026-04-21 11:27 | 39.76851 | 21.75466 | 40921 ft | 564 kts | 142° |
| 2026-04-21 11:27 | 39.70927 | 21.82164 | 40913 ft | 564 kts | 142° |
| 2026-04-21 11:28 | 39.65017 | 21.88829 | 40901 ft | 562 kts | 142° |
| 2026-04-21 11:28 | 39.59108 | 21.95480 | 40906 ft | 563 kts | 142° |
| 2026-04-21 11:29 | 39.53180 | 22.02135 | 40907 ft | 563 kts | 142° |
| 2026-04-21 11:29 | 39.47257 | 22.08768 | 40901 ft | 563 kts | 142° |
| 2026-04-21 11:30 | 39.41331 | 22.15392 | 40898 ft | 562 kts | 142° |
| 2026-04-21 11:30 | 39.35403 | 22.21999 | 40899 ft | 562 kts | 142° |
| 2026-04-21 11:31 | 39.29515 | 22.28556 | 40113 ft | 556 kts | 142° |
| 2026-04-21 11:31 | 39.26601 | 22.31779 | 39014 ft | 560 kts | 142° |
| 2026-04-21 11:31 | 39.23649 | 22.35053 | 37810 ft | 558 kts | 142° |
| 2026-04-21 11:32 | 39.20699 | 22.38330 | 36367 ft | 561 kts | 142° |
| 2026-04-21 11:32 | 39.17743 | 22.41601 | 34661 ft | 559 kts | 142° |
| 2026-04-21 11:32 | 39.14778 | 22.44872 | 32730 ft | 551 kts | 142° |
| 2026-04-21 11:32 | 39.11890 | 22.48062 | 30725 ft | 564 kts | 142° |
| 2026-04-21 11:33 | 39.08946 | 22.51302 | 30811 ft | 543 kts | 142° |
| 2026-04-21 11:33 | 39.06098 | 22.54454 | 30242 ft | 539 kts | 142° |
| 2026-04-21 11:33 | 39.03253 | 22.57580 | 29480 ft | 534 kts | 142° |
| 2026-04-21 11:33 | 39.00447 | 22.60658 | 28778 ft | 526 kts | 142° |
| 2026-04-21 11:34 | 38.97718 | 22.63658 | 28098 ft | 520 kts | 142° |
| 2026-04-21 11:34 | 38.94978 | 22.66664 | 27418 ft | 516 kts | 142° |
| 2026-04-21 11:34 | 38.92261 | 22.69638 | 26740 ft | 511 kts | 142° |
| 2026-04-21 11:34 | 38.89564 | 22.72592 | 26069 ft | 506 kts | 142° |
| 2026-04-21 11:35 | 38.86893 | 22.75513 | 25404 ft | 501 kts | 142° |
| 2026-04-21 11:35 | 38.84255 | 22.78395 | 24744 ft | 496 kts | 142° |
| 2026-04-21 11:35 | 38.81639 | 22.81246 | 24096 ft | 490 kts | 142° |
| 2026-04-21 11:35 | 38.79056 | 22.84064 | 23449 ft | 485 kts | 142° |
| 2026-04-21 11:36 | 38.76502 | 22.86846 | 22764 ft | 478 kts | 142° |
| 2026-04-21 11:36 | 38.73978 | 22.89590 | 22140 ft | 473 kts | 142° |
| 2026-04-21 11:36 | 38.71474 | 22.92312 | 21521 ft | 470 kts | 142° |
| 2026-04-21 11:36 | 38.68987 | 22.95011 | 20901 ft | 466 kts | 142° |
| 2026-04-21 11:37 | 38.66556 | 22.97650 | 20302 ft | 463 kts | 142° |
| 2026-04-21 11:37 | 38.64106 | 23.00304 | 19692 ft | 460 kts | 142° |
| 2026-04-21 11:37 | 38.61678 | 23.02934 | 19091 ft | 456 kts | 142° |
| 2026-04-21 11:37 | 38.59264 | 23.05547 | 18494 ft | 452 kts | 142° |
| 2026-04-21 11:38 | 38.56837 | 23.08157 | 17857 ft | 448 kts | 143° |
| 2026-04-21 11:38 | 38.54472 | 23.10718 | 17255 ft | 443 kts | 142° |
| 2026-04-21 11:38 | 38.52172 | 23.13217 | 16690 ft | 438 kts | 142° |
| 2026-04-21 11:38 | 38.49847 | 23.15714 | 16111 ft | 434 kts | 142° |
| 2026-04-21 11:39 | 38.47548 | 23.18182 | 15543 ft | 430 kts | 142° |
| 2026-04-21 11:39 | 38.45274 | 23.20631 | 14980 ft | 426 kts | 141° |
| 2026-04-21 11:39 | 38.43022 | 23.23057 | 14418 ft | 421 kts | 141° |
| 2026-04-21 11:39 | 38.40792 | 23.25450 | 13865 ft | 417 kts | 141° |
| 2026-04-21 11:40 | 38.38579 | 23.27819 | 13287 ft | 413 kts | 142° |
| 2026-04-21 11:40 | 38.36399 | 23.30159 | 12746 ft | 408 kts | 141° |
| 2026-04-21 11:40 | 38.34437 | 23.32743 | 12181 ft | 405 kts | 126° |
| 2026-04-21 11:40 | 38.33223 | 23.35953 | 11632 ft | 403 kts | 107° |
| 2026-04-21 11:41 | 38.32808 | 23.38243 | 11306 ft | 399 kts | 100° |
| 2026-04-21 11:41 | 38.32401 | 23.41725 | 10843 ft | 395 kts | 97° |
| 2026-04-21 11:41 | 38.32076 | 23.45188 | 10403 ft | 393 kts | 96° |
| 2026-04-21 11:41 | 38.31784 | 23.48646 | 9954 ft | 390 kts | 95° |
| 2026-04-21 11:42 | 38.31519 | 23.51917 | 9357 ft | 346 kts | 95° |
| 2026-04-21 11:42 | 38.31297 | 23.54795 | 8738 ft | 309 kts | 95° |
| 2026-04-21 11:42 | 38.31092 | 23.57545 | 8264 ft | 313 kts | 95° |
| 2026-04-21 11:42 | 38.30885 | 23.60297 | 7814 ft | 310 kts | 95° |
| 2026-04-21 11:43 | 38.30692 | 23.63023 | 7374 ft | 308 kts | 95° |
| 2026-04-21 11:43 | 38.30506 | 23.65729 | 6955 ft | 305 kts | 96° |
| 2026-04-21 11:43 | 38.30332 | 23.68419 | 6526 ft | 305 kts | 95° |
| 2026-04-21 11:43 | 38.30174 | 23.71112 | 6084 ft | 304 kts | 95° |
| 2026-04-21 11:44 | 38.30027 | 23.73714 | 5939 ft | 292 kts | 95° |
| 2026-04-21 11:44 | 38.29880 | 23.76298 | 5935 ft | 292 kts | 95° |
| 2026-04-21 11:44 | 38.29574 | 23.78838 | 5917 ft | 290 kts | 108° |
| 2026-04-21 11:44 | 38.28860 | 23.81222 | 5928 ft | 287 kts | 114° |
| 2026-04-21 11:45 | 38.28083 | 23.83564 | 5934 ft | 288 kts | 115° |
| 2026-04-21 11:45 | 38.27168 | 23.85821 | 5941 ft | 286 kts | 123° |
| 2026-04-21 11:45 | 38.26113 | 23.87959 | 5950 ft | 284 kts | 124° |
| 2026-04-21 11:45 | 38.25049 | 23.90066 | 5935 ft | 282 kts | 125° |
| 2026-04-21 11:46 | 38.23989 | 23.92174 | 5877 ft | 282 kts | 125° |
| 2026-04-21 11:46 | 38.22934 | 23.94266 | 5786 ft | 278 kts | 125° |
| 2026-04-21 11:46 | 38.21889 | 23.96346 | 5244 ft | 281 kts | 125° |
| 2026-04-21 11:46 | 38.20829 | 23.98425 | 4891 ft | 277 kts | 126° |
| 2026-04-21 11:47 | 38.19798 | 24.00474 | 4551 ft | 274 kts | 125° |
| 2026-04-21 11:47 | 38.18796 | 24.02524 | 4215 ft | 271 kts | 125° |
| 2026-04-21 11:47 | 38.17803 | 24.04547 | 3781 ft | 270 kts | 125° |
| 2026-04-21 11:47 | 38.16674 | 24.06410 | 3389 ft | 263 kts | 142° |
| 2026-04-21 11:48 | 38.15086 | 24.07397 | 3080 ft | 253 kts | 168° |
| 2026-04-21 11:48 | 38.13402 | 24.07744 | 2954 ft | 243 kts | 174° |
| 2026-04-21 11:48 | 38.11664 | 24.08036 | 2951 ft | 257 kts | 174° |
| 2026-04-21 11:48 | 38.09874 | 24.08319 | 2951 ft | 260 kts | 175° |
| 2026-04-21 11:49 | 38.08099 | 24.08130 | 2921 ft | 257 kts | 200° |
| 2026-04-21 11:49 | 38.06650 | 24.06866 | 2935 ft | 255 kts | 228° |
| 2026-04-21 11:49 | 38.05853 | 24.04858 | 2944 ft | 256 kts | 250° |
| 2026-04-21 11:49 | 38.05058 | 24.02874 | 2821 ft | 245 kts | 229° |
| 2026-04-21 11:50 | 38.03657 | 24.01694 | 2250 ft | 248 kts | 201° |
| 2026-04-21 11:50 | 38.02072 | 24.00989 | 2021 ft | 231 kts | 199° |
| 2026-04-21 11:50 | 38.00751 | 24.00116 | 1701 ft | 205 kts | 213° |
| 2026-04-21 11:50 | 37.99702 | 23.99095 | 1633 ft | 179 kts | 217° |
| 2026-04-21 11:51 | 37.98740 | 23.98138 | 1430 ft | 172 kts | 215° |
| 2026-04-21 11:51 | 37.97787 | 23.97257 | 1098 ft | 163 kts | 214° |
| 2026-04-21 11:51 | 37.96925 | 23.96425 | 853 ft | 150 kts | 214° |
| 2026-04-21 11:51 | 37.96116 | 23.95681 | 609 ft | 139 kts | 216° |
| 2026-04-21 11:52 | 37.95366 | 23.94957 | 460 ft | 135 kts | 217° |
| 2026-04-21 11:52 | 37.94607 | 23.94228 | 349 ft | 138 kts | 216° |
| 2026-04-21 11:52 | 37.93882 | 23.93539 | 287 ft | 117 kts | 217° |
| 2026-04-21 11:52 | 37.93480 | 23.93182 | 284 ft | 34 kts | 202° |
| 2026-04-21 11:53 | 37.93310 | 23.93130 | 287 ft | 13 kts | 187° |
| 2026-04-21 11:53 | 37.93257 | 23.93162 | 293 ft | 3 kts | 127° |
| 2026-04-21 11:53 | 37.93254 | 23.93171 | 291 ft | 0 kts | 115° |
| 2026-04-21 11:54 | 37.93251 | 23.93178 | 291 ft | 6 kts | 114° |
| 2026-04-21 11:54 | 37.93303 | 23.93268 | 294 ft | 22 kts | 35° |
| 2026-04-21 11:55 | 37.93451 | 23.93407 | 294 ft | 28 kts | 36° |
| 2026-04-21 11:55 | 37.93608 | 23.93553 | 295 ft | 28 kts | 36° |
| 2026-04-21 11:55 | 37.93766 | 23.93706 | 294 ft | 29 kts | 38° |
| 2026-04-21 11:55 | 37.93925 | 23.93863 | 296 ft | 30 kts | 38° |
| 2026-04-21 11:56 | 37.94093 | 23.94014 | 296 ft | 30 kts | 37° |
| 2026-04-21 11:56 | 37.94259 | 23.94176 | 295 ft | 30 kts | 38° |
| 2026-04-21 11:56 | 37.94430 | 23.94335 | 296 ft | 31 kts | 38° |
| 2026-04-21 11:56 | 37.94602 | 23.94498 | 298 ft | 29 kts | 37° |
| 2026-04-21 11:57 | 37.94689 | 23.94604 | 298 ft | 16 kts | 84° |
| 2026-04-21 11:57 | 37.94630 | 23.94717 | 298 ft | 16 kts | 130° |
| 2026-04-21 11:57 | 37.94556 | 23.94833 | 300 ft | 18 kts | 123° |
| 2026-04-21 11:57 | 37.94474 | 23.94981 | 295 ft | 21 kts | 128° |
| 2026-04-21 11:58 | 37.94379 | 23.95129 | 296 ft | 22 kts | 130° |
| 2026-04-21 11:58 | 37.94291 | 23.95289 | 297 ft | 22 kts | 126° |
| 2026-04-21 11:58 | 37.94195 | 23.95449 | 298 ft | 23 kts | 128° |
| 2026-04-21 11:58 | 37.94142 | 23.95595 | 293 ft | 16 kts | 66° |
| 2026-04-21 11:59 | 37.94227 | 23.95686 | 296 ft | 17 kts | 38° |
| 2026-04-21 11:59 | 37.94307 | 23.95747 | 294 ft | 7 kts | 333° |
| 2026-04-21 11:59 | 37.94342 | 23.95704 | 294 ft | 7 kts | 306° |
| 2026-04-21 11:59 | 37.94375 | 23.95647 | 295 ft | 9 kts | 306° |
| 2026-04-21 12:00 | 37.94413 | 23.95568 | 296 ft | 9 kts | 261° |
| 2026-04-21 12:00 | 37.94378 | 23.95527 | 295 ft | 5 kts | 218° |
| 2026-04-21 12:00 | 37.94374 | 23.95523 | 295 ft | 0 kts | 218° |